Due to severe server failure at the provider, not all demo sites are operational. Will take some days to rebuilt everything.

Demonstration site - Click on the  for more information

This is an optional block. Switch it on/off in your settings-file: $SITE['bannerTop'] = false; or $SITE['bannerBottom'] = false;

You can display ads, any other important text or photo’s using text / html or PHP code.

You can place one or more at the top and or bottom and it can all be different for content / size .



Visit our other weather sites:

Template documentation
and downloads

And another site



Nearby METAR Reports

   
EBAW - Antwerp
Updated: 21-11-2019 10:50
Mist, Mostly Cloudy  
Mist, Mostly Cloudy  
   Wind: East 11.1 km/h
Wind: East 11.1 km/h
Temperature: 1°C
Wind Chill: -2°C
Dew Point: -1°C
Humidity: 87%
Barometer: 1009 hPa
Clouds: Mostly Cloudy
Visibility: 4 km
Cloud details: Mostly Cloudy 400 ft
EBAW 210950Z 10006KT 3500 BR BKN004 01/M01 Q1009 BECMG BKN007
EBLG - Liège
Updated: 21-11-2019 10:50
Partly Cloudy  
Partly Cloudy  
   Wind: South 7.4 km/h
Wind: South 7.4 km/h
Temperature: 2°C
Wind Chill: 0°C
Dew Point: 0°C
Humidity: 87%
Barometer: 1008 hPa
Clouds: Partly Cloudy
Visibility: 7 km
Cloud details: Partly Cloudy ft
EBLG 210950Z 17004KT 150V210 7000 NSC 02/M00 Q1008 NOSIG
EBCV - Mons/Bergen
Updated: 21-11-2019 10:55
Overcast  
Overcast  
   Wind: East 7.4 km/h
Wind: East 7.4 km/h
Temperature: 1°C
Wind Chill: -1°C
Dew Point: 0°C
Humidity: 93%
Barometer: 1007 hPa
Clouds: Overcast
Visibility: 5 km
Cloud details: Overcast 800 ft
EBCV 210955Z AUTO 09004KT 5000 OVC008/// 01/00 Q1007 GRN
EHBK - Maastricht
Updated: 21-11-2019 10:55
Partly Cloudy  
Partly Cloudy  
   Wind: East 9.3 km/h
Wind: East 9.3 km/h
Temperature: 1°C
Wind Chill: -2°C
Dew Point: 0°C
Humidity: 93%
Barometer: 1008 hPa
Clouds: Partly Cloudy
Visibility: 7 km
Cloud details: Partly Cloudy ft
EHBK 210955Z AUTO 09005KT 060V120 7000 NSC 01/00 Q1008 BECMG CAVOK
ELLX - Luxemburg
Updated: 21-11-2019 10:50
Mist, Mostly Cloudy  
Mist, Mostly Cloudy  
   Wind: East 7.4 km/h
Wind: East 7.4 km/h
Temperature: 2°C
Wind Chill: 0°C
Dew Point: 1°C
Humidity: 93%
Barometer: 1008 hPa
Clouds: Mostly Cloudy
Visibility: 1 km
Cloud details: Partly Cloudy 100 ft,
Mostly Cloudy 300 ft
ELLX 210950Z 10004KT 070V140 1100 R24/1700N BR SCT001 BKN003 02/01 Q1008 BECMG 3000 BR BKN005
EBOS - Oostende
Updated: 21-11-2019 10:50
Mist, Mostly Cloudy  
Mist, Mostly Cloudy  
   Wind: ESE 16.7 km/h
Wind: ESE 16.7 km/h
Temperature: 0°C
Wind Chill: -4°C
Dew Point: -2°C
Humidity: 87%
Barometer: 1007 hPa
Clouds: Mostly Cloudy
Visibility: 5 km
Cloud details: Mostly Cloudy 600 ft
EBOS 210950Z 11009KT 4500 BR BKN006 00/M02 Q1007 NOSIG

Script developed by  Saratoga-weather.org Adapted for the template by  Weerstation Leuven

This is an optional block. Switch it on/off in your settings-file: $SITE['bannerTop'] = false; or $SITE['bannerBottom'] = false;

You can display ads, any other important text or photo’s using text / html or PHP code.

You can place one or more at the top and or bottom and it can all be different for content / size .